Time,TemperatureF,DewpointF,PressureIn,WindDirection,WindDirectionDegrees,WindSpeedMPH,WindSpeedGustMPH,Humidity,HourlyPrecipIn,Conditions,Clouds,dailyrainin,SoftwareType,DateUTC
2013-06-01 00:14:00,66.2,61.0,30.04,ESE,119,2.0,8.0,82,0.00,,,0.00,weatherlink.com 1.10,2013-06-01 04:14:00,
2013-06-01 00:29:00,65.9,61.0,30.05,South,186,1.0,6.0,83,0.00,,,0.00,weatherlink.com 1.10,2013-06-01 04:29:00,
2013-06-01 00:44:00,65.4,61.0,30.05,East,90,0.0,6.0,84,0.00,,,0.00,weatherlink.com 1.10,2013-06-01 04:44:00,
2013-06-01 00:59:00,65.0,60.0,30.05,West,273,1.0,2.0,84,0.00,,,0.00,weatherlink.com 1.10,2013-06-01 04:59:00,
2013-06-01 01:14:00,64.7,60.0,30.04,West,265,1.0,4.0,85,0.00,,,0.00,weatherlink.com 1.10,2013-06-01 05:14:00,
2013-06-01 01:29:00,64.4,60.0,30.04,SSW,196,0.0,2.0,86,0.00,,,0.00,weatherlink.com 1.10,2013-06-01 05:29:00,
2013-06-01 01:44:00,63.8,60.0,30.04,SW,227,0.0,2.0,86,0.00,,,0.00,weatherlink.com 1.10,2013-06-01 05:44:00,
2013-06-01 01:59:00,63.2,59.0,30.04,South,176,0.0,1.0,87,0.00,,,0.00,weatherlink.com 1.10,2013-06-01 05:59:00,
2013-06-01 02:14:00,62.9,59.0,30.03,NW,305,2.0,4.0,88,0.00,,,0.00,weatherlink.com 1.10,2013-06-01 06:14:00,
2013-06-01 02:29:00,62.8,59.0,30.03,SW,235,0.0,4.0,88,0.00,,,0.00,weatherlink.com 1.10,2013-06-01 06:29:00,
2013-06-01 02:44:00,62.8,59.0,30.02,West,268,1.0,3.0,88,0.00,,,0.00,weatherlink.com 1.10,2013-06-01 06:44:00,
2013-06-01 02:59:00,62.7,60.0,30.02,SSE,159,1.0,2.0,89,0.00,,,0.00,weatherlink.com 1.10,2013-06-01 06:59:00,
2013-06-01 03:14:00,62.7,59.0,30.02,West,269,1.0,4.0,88,0.00,,,0.00,weatherlink.com 1.10,2013-06-01 07:14:00,
2013-06-01 03:29:00,62.7,59.0,30.02,West,264,0.0,5.0,88,0.00,,,0.00,weatherlink.com 1.10,2013-06-01 07:29:00,
2013-06-01 03:44:00,62.5,59.0,30.02,West,272,0.0,2.0,89,0.00,,,0.00,weatherlink.com 1.10,2013-06-01 07:44:00,
2013-06-01 03:59:00,62.3,59.0,30.02,West,276,1.0,7.0,89,0.00,,,0.00,weatherlink.com 1.10,2013-06-01 07:59:00,
2013-06-01 04:14:00,62.0,59.0,30.02,West,259,2.0,3.0,89,0.00,,,0.00,weatherlink.com 1.10,2013-06-01 08:14:00,
2013-06-01 04:29:00,61.8,59.0,30.02,SSW,193,2.0,4.0,90,0.00,,,0.00,weatherlink.com 1.10,2013-06-01 08:29:00,
2013-06-01 04:44:00,61.6,59.0,30.03,WNW,288,0.0,2.0,90,0.00,,,0.00,weatherlink.com 1.10,2013-06-01 08:44:00,
2013-06-01 04:59:00,61.2,58.0,30.03,South,172,1.0,2.0,90,0.00,,,0.00,weatherlink.com 1.10,2013-06-01 08:59:00,
2013-06-01 05:14:00,60.7,58.0,30.03,South,172,0.0,1.0,91,0.00,,,0.00,weatherlink.com 1.10,2013-06-01 09:14:00,
2013-06-01 05:29:00,60.2,58.0,30.03,South,172,0.0,0.0,91,0.00,,,0.00,weatherlink.com 1.10,2013-06-01 09:29:00,
2013-06-01 05:44:00,60.4,58.0,30.03,WSW,247,2.0,4.0,93,0.00,,,0.00,weatherlink.com 1.10,2013-06-01 09:44:00,
2013-06-01 05:59:00,62.0,60.0,30.04,SSE,150,0.0,5.0,94,0.00,,,0.00,weatherlink.com 1.10,2013-06-01 09:59:00,
2013-06-01 06:15:00,62.9,61.0,30.04,SSE,150,2.0,3.0,92,0.00,,,0.00,weatherlink.com 1.10,2013-06-01 10:15:00,
2013-06-01 06:30:00,64.7,62.0,30.04,SSW,203,1.0,5.0,91,0.00,,,0.00,weatherlink.com 1.10,2013-06-01 10:30:00,
2013-06-01 06:45:00,66.0,62.0,30.04,WSW,249,1.0,6.0,88,0.00,,,0.00,weatherlink.com 1.10,2013-06-01 10:45:00,
2013-06-01 07:00:00,67.4,63.0,30.04,West,274,0.0,3.0,86,0.00,,,0.00,weatherlink.com 1.10,2013-06-01 11:00:00,
2013-06-01 07:15:00,68.4,63.0,30.03,West,276,2.0,5.0,83,0.00,,,0.00,weatherlink.com 1.10,2013-06-01 11:15:00,
2013-06-01 07:30:00,68.9,64.0,30.04,WSW,238,2.0,5.0,83,0.00,,,0.00,weatherlink.com 1.10,2013-06-01 11:30:00,
2013-06-01 07:45:00,69.5,63.0,30.04,WNW,288,3.0,9.0,81,0.00,,,0.00,weatherlink.com 1.10,2013-06-01 11:45:00,
2013-06-01 08:00:00,69.9,64.0,30.04,South,183,1.0,6.0,82,0.00,,,0.00,weatherlink.com 1.10,2013-06-01 12:00:00,
2013-06-01 08:15:00,69.5,63.0,30.04,WSW,246,2.0,10.0,81,0.00,,,0.00,weatherlink.com 1.10,2013-06-01 12:15:00,
2013-06-01 08:30:00,70.6,65.0,30.05,SE,137,3.0,10.0,82,0.00,,,0.00,weatherlink.com 1.10,2013-06-01 12:30:00,
2013-06-01 08:45:00,70.8,64.0,30.05,West,264,3.0,12.0,80,0.00,,,0.00,weatherlink.com 1.10,2013-06-01 12:45:00,
2013-06-01 09:00:00,72.5,66.0,30.04,West,274,3.0,7.0,80,0.00,,,0.00,weatherlink.com 1.10,2013-06-01 13:00:00,
2013-06-01 09:15:00,73.5,66.0,30.04,WSW,241,6.0,8.0,77,0.00,,,0.00,weatherlink.com 1.10,2013-06-01 13:15:00,
2013-06-01 09:30:00,73.2,65.0,30.04,WNW,282,8.0,11.0,76,0.00,,,0.00,weatherlink.com 1.10,2013-06-01 13:30:00,
2013-06-01 09:45:00,72.6,65.0,30.05,WSW,256,3.0,11.0,78,0.00,,,0.00,weatherlink.com 1.10,2013-06-01 13:45:00,
2013-06-01 10:00:00,73.5,66.0,30.05,WSW,251,15.0,16.0,76,0.00,,,0.00,weatherlink.com 1.10,2013-06-01 14:00:00,
2013-06-01 10:15:00,73.0,66.0,30.04,West,268,5.0,13.0,78,0.00,,,0.00,weatherlink.com 1.10,2013-06-01 14:15:00,
2013-06-01 10:30:00,74.2,67.0,30.04,West,264,8.0,11.0,77,0.00,,,0.00,weatherlink.com 1.10,2013-06-01 14:30:00,
2013-06-01 10:45:00,76.6,68.0,30.04,SSW,206,0.0,11.0,75,0.00,,,0.00,weatherlink.com 1.10,2013-06-01 14:45:00,
2013-06-01 11:00:00,76.2,67.0,30.04,WSW,257,3.0,11.0,72,0.00,,,0.00,weatherlink.com 1.10,2013-06-01 15:00:00,
2013-06-01 11:15:00,76.0,67.0,30.05,West,273,6.0,12.0,73,0.00,,,0.00,weatherlink.com 1.10,2013-06-01 15:15:00,
2013-06-01 11:30:00,75.7,66.0,30.04,WSW,257,2.0,12.0,73,0.00,,,0.00,weatherlink.com 1.10,2013-06-01 15:30:00,
2013-06-01 11:45:00,77.2,68.0,30.04,West,269,8.0,9.0,72,0.00,,,0.00,weatherlink.com 1.10,2013-06-01 15:45:00,
2013-06-01 12:00:00,78.0,69.0,30.03,SW,223,2.0,9.0,73,0.00,,,0.00,weatherlink.com 1.10,2013-06-01 16:00:00,
2013-06-01 12:15:00,77.9,67.0,30.03,SSW,202,3.0,12.0,70,0.00,,,0.00,weatherlink.com 1.10,2013-06-01 16:15:00,
2013-06-01 12:30:00,78.5,68.0,30.03,WSW,240,3.0,9.0,70,0.00,,,0.00,weatherlink.com 1.10,2013-06-01 16:30:00,
2013-06-01 12:46:00,78.5,67.0,30.03,West,267,6.0,11.0,68,0.00,,,0.00,weatherlink.com 1.10,2013-06-01 16:46:00,
2013-06-01 13:01:00,78.6,67.0,30.02,West,281,8.0,14.0,67,0.00,,,0.00,weatherlink.com 1.10,2013-06-01 17:01:00,
2013-06-01 13:16:00,78.9,67.0,30.02,SW,220,1.0,18.0,68,0.00,,,0.00,weatherlink.com 1.10,2013-06-01 17:16:00,
2013-06-01 13:31:00,79.6,67.0,30.02,South,184,3.0,11.0,66,0.00,,,0.00,weatherlink.com 1.10,2013-06-01 17:31:00,
2013-06-01 13:46:00,79.6,66.0,30.01,WSW,257,8.0,12.0,63,0.00,,,0.00,weatherlink.com 1.10,2013-06-01 17:46:00,
2013-06-01 14:01:00,77.9,67.0,30.01,SSE,167,3.0,7.0,68,0.00,,,0.00,weatherlink.com 1.10,2013-06-01 18:01:00,
2013-06-01 14:16:00,78.0,67.0,30.01,West,264,7.0,8.0,69,0.00,,,0.00,weatherlink.com 1.10,2013-06-01 18:16:00,
2013-06-01 14:31:00,79.1,68.0,30.00,SW,233,2.0,8.0,68,0.00,,,0.00,weatherlink.com 1.10,2013-06-01 18:31:00,
2013-06-01 14:46:00,79.9,67.0,30.00,SW,219,4.0,10.0,65,0.00,,,0.00,weatherlink.com 1.10,2013-06-01 18:46:00,
2013-06-01 15:01:00,79.2,66.0,30.00,WSW,252,4.0,13.0,65,0.00,,,0.00,weatherlink.com 1.10,2013-06-01 19:01:00,
2013-06-01 15:16:00,78.9,67.0,30.00,NW,304,5.0,14.0,66,0.00,,,0.00,weatherlink.com 1.10,2013-06-01 19:16:00,
2013-06-01 15:31:00,78.3,66.0,30.00,ESE,111,3.0,13.0,67,0.00,,,0.00,weatherlink.com 1.10,2013-06-01 19:31:00,
2013-06-01 15:46:00,77.6,66.0,29.99,SSE,148,6.0,13.0,68,0.00,,,0.00,weatherlink.com 1.10,2013-06-01 19:46:00,
2013-06-01 16:01:00,77.7,66.0,29.98,WSW,241,5.0,9.0,67,0.00,,,0.00,weatherlink.com 1.10,2013-06-01 20:01:00,
2013-06-01 16:16:00,77.1,66.0,29.99,NE,42,3.0,10.0,68,0.00,,,0.00,weatherlink.com 1.10,2013-06-01 20:16:00,
2013-06-01 16:31:00,76.5,66.0,29.98,West,276,3.0,11.0,70,0.00,,,0.00,weatherlink.com 1.10,2013-06-01 20:31:00,
2013-06-01 16:46:00,76.0,65.0,29.99,SSE,151,3.0,9.0,69,0.00,,,0.00,weatherlink.com 1.10,2013-06-01 20:46:00,
2013-06-01 17:01:00,74.9,65.0,29.98,West,280,1.0,12.0,70,0.00,,,0.00,weatherlink.com 1.10,2013-06-01 21:01:00,
2013-06-01 17:16:00,73.9,64.0,29.99,West,276,4.0,11.0,72,0.00,,,0.00,weatherlink.com 1.10,2013-06-01 21:16:00,
2013-06-01 17:31:00,73.7,64.0,29.98,SSW,193,4.0,7.0,72,0.00,,,0.00,weatherlink.com 1.10,2013-06-01 21:31:00,
2013-06-01 17:46:00,73.4,65.0,29.99,West,264,0.0,10.0,74,0.00,,,0.00,weatherlink.com 1.10,2013-06-01 21:46:00,
2013-06-01 18:01:00,74.3,65.0,29.98,South,178,2.0,6.0,72,0.00,,,0.00,weatherlink.com 1.10,2013-06-01 22:01:00,
2013-06-01 18:16:00,73.7,65.0,29.98,West,260,3.0,11.0,73,0.00,,,0.00,weatherlink.com 1.10,2013-06-01 22:16:00,
2013-06-01 18:31:00,72.6,64.0,29.98,WSW,237,3.0,4.0,75,0.00,,,0.00,weatherlink.com 1.10,2013-06-01 22:31:00,
2013-06-01 18:46:00,71.9,64.0,29.98,WNW,299,4.0,6.0,76,0.00,,,0.00,weatherlink.com 1.10,2013-06-01 22:46:00,
2013-06-01 19:01:00,70.4,63.0,29.97,SE,146,2.0,8.0,78,0.00,,,0.00,weatherlink.com 1.10,2013-06-01 23:01:00,
2013-06-01 19:16:00,68.5,63.0,29.98,ESE,104,3.0,9.0,81,0.00,,,0.00,weatherlink.com 1.10,2013-06-01 23:16:00,
2013-06-01 19:31:00,67.4,62.0,29.98,SSE,149,5.0,10.0,84,0.00,,,0.00,weatherlink.com 1.10,2013-06-01 23:31:00,
2013-06-01 19:46:00,66.3,62.0,29.98,NW,312,2.0,9.0,86,0.00,,,0.00,weatherlink.com 1.10,2013-06-01 23:46:00,
2013-06-01 20:01:00,65.6,62.0,29.99,SE,141,1.0,8.0,88,0.00,,,0.00,weatherlink.com 1.10,2013-06-02 00:01:00,
2013-06-01 20:16:00,65.3,62.0,29.98,SW,222,2.0,9.0,90,0.00,,,0.00,weatherlink.com 1.10,2013-06-02 00:16:00,
2013-06-01 20:31:00,65.2,62.0,29.99,WNW,296,2.0,11.0,90,0.00,,,0.00,weatherlink.com 1.10,2013-06-02 00:31:00,
2013-06-01 20:46:00,64.7,62.0,29.99,SE,126,2.0,9.0,90,0.00,,,0.00,weatherlink.com 1.10,2013-06-02 00:46:00,
2013-06-01 21:01:00,64.1,62.0,29.99,SSE,159,3.0,9.0,91,0.00,,,0.00,weatherlink.com 1.10,2013-06-02 01:01:00,
2013-06-01 21:16:00,64.4,62.0,30.00,WSW,239,2.0,7.0,92,0.00,,,0.00,weatherlink.com 1.10,2013-06-02 01:16:00,
2013-06-01 21:31:00,64.9,62.0,30.00,SW,223,5.0,11.0,91,0.00,,,0.00,weatherlink.com 1.10,2013-06-02 01:31:00,
2013-06-01 21:46:00,64.9,62.0,30.00,West,262,6.0,13.0,91,0.00,,,0.00,weatherlink.com 1.10,2013-06-02 01:46:00,
2013-06-01 22:01:00,64.9,62.0,30.00,WSW,253,3.0,11.0,91,0.00,,,0.00,weatherlink.com 1.10,2013-06-02 02:01:00,
2013-06-01 22:16:00,64.5,62.0,30.00,NW,305,5.0,11.0,90,0.00,,,0.00,weatherlink.com 1.10,2013-06-02 02:16:00,
2013-06-01 22:31:00,64.1,62.0,30.00,SW,233,1.0,12.0,91,0.00,,,0.00,weatherlink.com 1.10,2013-06-02 02:31:00,
2013-06-01 22:46:00,63.6,61.0,30.00,West,275,6.0,7.0,91,0.00,,,0.00,weatherlink.com 1.10,2013-06-02 02:46:00,
2013-06-01 23:01:00,63.3,61.0,30.00,SSE,150,1.0,7.0,92,0.00,,,0.00,weatherlink.com 1.10,2013-06-02 03:01:00,
2013-06-01 23:16:00,63.4,61.0,29.99,North,359,0.0,8.0,92,0.00,,,0.00,weatherlink.com 1.10,2013-06-02 03:16:00,
2013-06-01 23:31:00,63.7,61.0,29.99,SW,224,0.0,7.0,91,0.00,,,0.00,weatherlink.com 1.10,2013-06-02 03:31:00,
2013-06-01 23:46:00,64.3,61.0,29.99,WNW,290,5.0,14.0,89,0.00,,,0.00,weatherlink.com 1.10,2013-06-02 03:46:00,